Nagpur, India

1:41 AM IST on October 26, 2014 (GMT +0530)
Nagpur | Change Station
CLOSE
Current Station
Airport
Location: Nagpur Sonegaon,
Elevation: 1017 ft
Nearby Weather Stations

Elev 1017 ft 21.09 °N, 79.06 °E | Updated 1 hour ago

Haze
Haze
68 °F
Feels Like 68 °F
N
2
Wind Variable Wind from South

Today
High -- | Low -- °F
--% Chance of Precip.
Yesterday
High -- | Low -- °F
Precip. -- in
6:13 AM 5:41 PM
Waxing Crescent, 4% visible
Pressure 30.01 in
Visibility 2.5 miles
Clouds Scattered Clouds 2000 ft
Mostly Cloudy 9000 ft
Dew Point 63 °F
Humidity 83%
Rainfall 0.00 in
Snow Depth Not available.
UV 0 out of 12
Pollen Not available.
Air Quality Not available.
Flu Activity Not available.
METAR VANP 251910Z 17002KT 4000 HZ SCT020 BKN090 20/17 Q1016 NOSIG

More Conditions Fewer Conditions

Pressure 30.01 in
Visibility 2.5 miles
Clouds Scattered Clouds 2000 ft
Mostly Cloudy 9000 ft
Dew Point 63 °F
Humidity 83%
Rainfall 0.00 in
Snow Depth Not available.
UV 0 out of 12
Pollen Not available.
Air Quality Not available.
Flu Activity Not available.
METAR VANP 251910Z 17002KT 4000 HZ SCT020 BKN090 20/17 Q1016 NOSIG

More Conditions Fewer Conditions

10-Day Weather Forecast

Almanac

Astronomy

Oct. 26, 2014 Rise Set
Actual Time 6:13 AM IST 5:41 PM IST
Civil Twilight 5:50 AM IST 6:04 PM IST
Nautical Twilight 5:24 AM IST 6:30 PM IST
Astronomical Twilight 4:58 AM IST 6:56 PM IST
Moon 8:12 AM IST (10/26) 7:41 PM IST (10/26)
Length of Visible Light 12h 13m
Length of Day
11h 28m
Tomorrow will be 1m 6s shorter.
Waxing Crescent, 4% of the Moon is Illuminated
Oct 25
Waxing Crescent
Oct 30
First Quarter
Nov 6
Full
Nov 14
Last Quarter
Nov 22
New

Yesterday's Extremes

Country Highs Country Lows

Community

WunderPhotos

Upload Photos

1,764,976 photos uploaded!

Nearby

Snow Depth

Not available.

Earthquake Activity

City Distance Mag. Time & Date
No recent earthquake activity has been reported nearby.
Minimum magnitude displayed is 2.5.

Coastal Water Temperatures

Place Temperature
No Stations Reporting

Nearby Weather Stations